createdAt,value
2023-05-05T00:02:25.974Z,15.58
2023-05-05T00:05:08.500Z,14.65
2023-05-05T00:07:39.603Z,16.00
2023-05-05T00:10:11.196Z,14.78
2023-05-05T00:12:42.444Z,15.18
2023-05-05T00:15:13.596Z,14.40
2023-05-05T00:17:44.704Z,14.78
2023-05-05T00:20:16.184Z,14.05
2023-05-05T00:22:47.301Z,13.90
2023-05-05T00:25:18.648Z,15.03
2023-05-05T00:27:49.816Z,14.47
2023-05-05T00:30:21.266Z,14.20
2023-05-05T00:32:52.922Z,13.70
2023-05-05T00:35:24.110Z,16.60
2023-05-05T00:40:53.369Z,14.60
2023-05-05T00:43:25.038Z,14.65
2023-05-05T00:46:01.239Z,15.20
2023-05-05T00:48:34.264Z,16.10
2023-05-05T00:51:06.719Z,15.70
2023-05-05T00:53:39.858Z,15.90
2023-05-05T00:56:11.357Z,15.08
2023-05-05T00:58:46.332Z,15.72
2023-05-05T01:01:20.519Z,16.32
2023-05-05T01:03:51.734Z,16.23
2023-05-05T01:06:32.041Z,16.85
2023-05-05T01:09:34.181Z,24.57
2023-05-05T01:12:10.644Z,18.20
2023-05-05T01:17:26.910Z,15.43
2023-05-05T01:20:21.807Z,15.28
2023-05-05T01:23:01.810Z,14.80
2023-05-05T01:26:00.660Z,14.87
2023-05-05T01:28:50.461Z,14.35
2023-05-05T01:31:39.152Z,14.28
2023-05-05T01:34:12.152Z,14.05
2023-05-05T01:36:45.708Z,14.18
2023-05-05T01:39:18.821Z,15.23
2023-05-05T01:41:52.504Z,14.65
2023-05-05T01:50:13.926Z,13.53
2023-05-05T01:52:47.407Z,14.10
2023-05-05T01:55:20.989Z,13.93
2023-05-05T01:57:53.256Z,13.78
2023-05-05T02:00:26.303Z,13.65
2023-05-05T02:02:59.165Z,14.03
2023-05-05T02:05:31.872Z,14.23
2023-05-05T02:08:04.952Z,14.78
2023-05-05T02:10:45.043Z,13.68
2023-05-05T02:16:10.648Z,18.12
2023-05-05T02:18:42.623Z,14.13
2023-05-05T02:21:15.800Z,15.70
2023-05-05T02:23:51.951Z,14.58
2023-05-05T02:29:14.325Z,13.40
2023-05-05T02:34:43.682Z,14.45
2023-05-05T02:37:17.584Z,16.00
2023-05-05T02:40:03.077Z,14.58
2023-05-05T02:42:36.657Z,13.65
2023-05-05T02:45:21.000Z,14.03
2023-05-05T02:47:52.272Z,14.25
2023-05-05T02:50:23.856Z,15.18
2023-05-05T02:52:54.977Z,15.50
2023-05-05T02:55:27.150Z,13.32
2023-05-05T02:58:09.552Z,13.22
2023-05-05T03:00:45.721Z,13.55
2023-05-05T03:03:35.174Z,13.15
2023-05-05T03:06:14.600Z,13.10
2023-05-05T03:09:00.352Z,13.18
2023-05-05T03:11:39.675Z,14.47
2023-05-05T03:14:17.534Z,12.93
2023-05-05T03:16:51.503Z,13.93
2023-05-05T03:19:25.781Z,12.90
2023-05-05T03:21:58.001Z,12.73
2023-05-05T03:24:31.393Z,13.85
2023-05-05T03:27:02.853Z,13.28
2023-05-05T03:29:33.958Z,13.20
2023-05-05T03:32:05.606Z,13.90
2023-05-05T03:37:28.990Z,14.25
2023-05-05T03:40:00.140Z,13.32
2023-05-05T03:42:31.573Z,13.10
2023-05-05T03:45:03.170Z,13.58
2023-05-05T03:47:34.602Z,16.32
2023-05-05T03:50:05.841Z,13.62
2023-05-05T03:52:37.045Z,12.40
2023-05-05T03:55:07.955Z,13.35
2023-05-05T03:57:42.837Z,13.08
2023-05-05T04:00:15.311Z,12.15
2023-05-05T04:02:46.736Z,12.53
2023-05-05T04:05:18.362Z,12.93
2023-05-05T04:07:49.450Z,12.58
2023-05-05T04:10:21.125Z,14.60
2023-05-05T04:12:52.563Z,11.83
2023-05-05T04:15:24.281Z,12.47
2023-05-05T04:17:55.693Z,13.05
2023-05-05T04:20:31.514Z,12.63
2023-05-05T04:23:02.234Z,14.53
2023-05-05T04:25:33.413Z,12.78
2023-05-05T04:28:04.643Z,13.45
2023-05-05T04:30:38.822Z,13.50
2023-05-05T04:33:10.246Z,13.48
2023-05-05T04:35:41.767Z,12.93
2023-05-05T04:38:14.142Z,13.22
2023-05-05T04:40:45.290Z,15.43
2023-05-05T04:43:16.710Z,12.63
2023-05-05T04:45:55.401Z,12.60
2023-05-05T04:48:26.886Z,12.70
2023-05-05T04:50:57.989Z,12.75
2023-05-05T04:53:29.328Z,14.87
2023-05-05T04:56:01.888Z,13.18
2023-05-05T04:58:33.724Z,12.70
2023-05-05T05:01:05.253Z,12.65
2023-05-05T05:03:39.332Z,12.60
2023-05-05T05:06:10.635Z,12.25
2023-05-05T05:08:42.039Z,14.28
2023-05-05T05:11:13.338Z,14.43
2023-05-05T05:13:44.816Z,21.20
2023-05-05T05:16:18.803Z,12.40
2023-05-05T05:18:50.027Z,11.57
2023-05-05T05:21:21.079Z,11.48
2023-05-05T05:23:52.365Z,12.15
2023-05-05T05:26:23.822Z,13.70
2023-05-05T05:28:55.074Z,13.20
2023-05-05T05:31:26.216Z,12.50
2023-05-05T05:33:57.465Z,15.43
2023-05-05T05:36:28.587Z,13.58
2023-05-05T05:39:00.599Z,17.48
2023-05-05T05:41:32.405Z,13.00
2023-05-05T05:44:03.968Z,13.53
2023-05-05T05:46:35.178Z,14.53
2023-05-05T05:49:06.691Z,13.80
2023-05-05T05:51:37.928Z,14.20
2023-05-05T05:54:09.014Z,13.03
2023-05-05T05:56:41.203Z,13.55
2023-05-05T05:59:12.293Z,12.20
2023-05-05T06:01:43.658Z,12.53
2023-05-05T06:04:14.837Z,12.53
2023-05-05T06:06:46.094Z,12.47
2023-05-05T06:09:17.547Z,12.45
2023-05-05T06:11:48.694Z,12.33
2023-05-05T06:14:20.275Z,12.03
2023-05-05T06:16:51.790Z,12.68
2023-05-05T06:19:23.140Z,12.20
2023-05-05T06:21:54.693Z,11.60
2023-05-05T06:24:25.844Z,11.08
2023-05-05T06:26:57.395Z,11.20
2023-05-05T06:29:29.205Z,10.88
2023-05-05T06:32:01.789Z,11.33
2023-05-05T06:34:33.351Z,10.48
2023-05-05T06:37:04.516Z,10.72
2023-05-05T06:39:35.655Z,11.12
2023-05-05T06:42:07.426Z,11.60
2023-05-05T06:44:38.936Z,10.45
2023-05-05T06:47:10.116Z,10.55
2023-05-05T06:49:41.307Z,10.53
2023-05-05T06:52:12.580Z,12.33
2023-05-05T06:54:43.795Z,11.25
2023-05-05T06:57:14.895Z,11.90
2023-05-05T06:59:46.170Z,9.88
2023-05-05T07:02:17.677Z,10.75
2023-05-05T07:04:49.739Z,11.10
2023-05-05T07:07:20.820Z,10.58
2023-05-05T07:09:51.929Z,10.75
2023-05-05T07:12:23.316Z,12.20
2023-05-05T07:14:54.568Z,11.45
2023-05-05T07:17:25.926Z,11.70
2023-05-05T07:19:57.467Z,11.22
2023-05-05T07:22:28.795Z,10.40
2023-05-05T07:24:59.914Z,10.48
2023-05-05T07:27:31.402Z,11.00
2023-05-05T07:30:04.045Z,11.25
2023-05-05T07:32:34.956Z,11.10
2023-05-05T07:35:06.983Z,10.70
2023-05-05T07:37:38.439Z,11.20
2023-05-05T07:40:11.121Z,11.00
2023-05-05T07:42:45.856Z,10.20
2023-05-05T07:45:17.099Z,10.53
2023-05-05T07:47:48.767Z,11.18
2023-05-05T07:50:20.206Z,10.90
2023-05-05T07:52:56.414Z,10.70
2023-05-05T07:55:23.939Z,11.12
2023-05-05T07:57:55.133Z,10.65
2023-05-05T08:00:26.388Z,11.53
2023-05-05T08:02:57.939Z,10.48
2023-05-05T08:05:29.152Z,10.43
2023-05-05T08:08:01.065Z,9.98
2023-05-05T08:10:33.012Z,11.40
2023-05-05T08:13:05.719Z,11.05
2023-05-05T08:15:37.953Z,10.60
2023-05-05T08:18:11.041Z,11.25
2023-05-05T08:20:42.727Z,10.55
2023-05-05T08:23:15.239Z,10.68
2023-05-05T08:25:47.077Z,11.03
2023-05-05T08:28:18.517Z,10.60
2023-05-05T08:30:51.068Z,11.10
2023-05-05T08:33:22.614Z,9.70
2023-05-05T08:35:54.690Z,10.28
2023-05-05T08:38:26.074Z,10.43
2023-05-05T08:40:57.538Z,11.20
2023-05-05T08:43:28.719Z,10.70
2023-05-05T08:46:00.675Z,9.98
2023-05-05T08:48:34.419Z,9.98
2023-05-05T08:51:07.541Z,9.75
2023-05-05T08:54:00.344Z,9.88
2023-05-05T08:56:36.282Z,11.43
2023-05-05T08:59:08.378Z,9.80
2023-05-05T09:01:40.207Z,9.60
2023-05-05T09:04:12.319Z,9.45
2023-05-05T09:06:44.245Z,10.20
2023-05-05T09:09:16.422Z,10.23
2023-05-05T09:11:48.613Z,10.35
2023-05-05T09:14:20.341Z,10.03
2023-05-05T09:16:51.859Z,10.40
2023-05-05T09:19:23.465Z,9.83
2023-05-05T09:21:54.582Z,10.15
2023-05-05T09:24:25.691Z,11.35
2023-05-05T09:26:59.009Z,10.65
2023-05-05T09:29:29.683Z,10.13
2023-05-05T09:32:06.354Z,10.25
2023-05-05T09:34:38.637Z,9.78
2023-05-05T09:37:10.116Z,10.08
2023-05-05T09:39:43.577Z,9.73
2023-05-05T09:42:23.621Z,10.03
2023-05-05T09:44:56.058Z,9.65
2023-05-05T09:47:38.301Z,9.93
2023-05-05T09:50:11.270Z,9.55
2023-05-05T09:52:42.908Z,10.00
2023-05-05T09:55:23.279Z,9.68
2023-05-05T09:57:54.681Z,9.95
2023-05-05T10:00:28.341Z,9.90
2023-05-05T10:03:02.371Z,10.43
2023-05-05T10:05:33.668Z,9.50
2023-05-05T10:08:07.102Z,9.30
2023-05-05T10:10:38.721Z,10.30
2023-05-05T10:13:10.056Z,9.88
2023-05-05T10:15:41.931Z,10.13
2023-05-05T10:18:14.742Z,10.08
2023-05-05T10:20:46.985Z,9.55
2023-05-05T10:23:31.867Z,11.48
2023-05-05T10:26:07.804Z,10.58
2023-05-05T10:28:44.563Z,10.32
2023-05-05T10:31:26.578Z,10.15
2023-05-05T10:33:58.744Z,10.08
2023-05-05T10:36:31.781Z,10.48
2023-05-05T10:39:03.780Z,10.40
2023-05-05T10:41:36.349Z,9.90
2023-05-05T10:44:09.123Z,10.45
2023-05-05T10:46:41.100Z,10.23
2023-05-05T10:49:43.338Z,11.05
2023-05-05T10:52:22.981Z,10.72
2023-05-05T10:55:17.295Z,10.13
2023-05-05T10:57:50.568Z,10.88
2023-05-05T11:00:44.961Z,11.10
2023-05-05T11:03:21.680Z,9.63
2023-05-05T11:06:49.778Z,10.50
2023-05-05T11:09:33.269Z,11.28
2023-05-05T11:12:12.956Z,11.63
2023-05-05T11:14:44.239Z,11.08
2023-05-05T11:17:49.143Z,11.25
2023-05-05T11:20:20.504Z,11.60
2023-05-05T11:23:11.194Z,11.35
2023-05-05T11:25:45.164Z,12.50
2023-05-05T11:28:22.871Z,12.35
2023-05-05T11:31:01.825Z,12.95
2023-05-05T11:33:39.854Z,14.43
2023-05-05T11:36:15.818Z,13.58
2023-05-05T11:39:10.008Z,12.65
2023-05-05T11:41:43.394Z,12.13
2023-05-05T11:44:37.280Z,12.33
2023-05-05T11:47:10.801Z,12.88
2023-05-05T11:49:42.229Z,12.50
2023-05-05T11:52:17.192Z,11.83
2023-05-05T11:54:51.311Z,12.30
2023-05-05T11:57:28.807Z,13.13
2023-05-05T12:00:04.185Z,13.60
2023-05-05T12:02:35.486Z,11.63
2023-05-05T12:05:07.164Z,11.90
2023-05-05T12:07:38.415Z,12.13
2023-05-05T12:10:11.755Z,11.50
2023-05-05T12:12:43.494Z,11.25
2023-05-05T12:15:14.894Z,11.40
2023-05-05T12:17:47.825Z,12.28
2023-05-05T12:20:27.994Z,12.35
2023-05-05T12:25:51.102Z,13.13
2023-05-05T12:28:24.776Z,13.20
2023-05-05T12:31:01.194Z,13.32
2023-05-05T12:33:32.748Z,14.30
2023-05-05T12:36:04.082Z,14.10
2023-05-05T12:38:35.258Z,13.38
2023-05-05T12:41:06.884Z,13.28
2023-05-05T12:43:42.173Z,12.03
2023-05-05T12:46:17.021Z,12.90
2023-05-05T12:48:49.525Z,13.28
2023-05-05T12:51:27.801Z,11.83
2023-05-05T12:54:10.946Z,11.33
2023-05-05T12:56:51.520Z,11.93
2023-05-05T12:59:27.164Z,12.15
2023-05-05T13:01:59.964Z,13.45
2023-05-05T13:04:34.778Z,14.10
2023-05-05T13:07:21.586Z,14.53
2023-05-05T13:09:53.393Z,13.93
2023-05-05T13:12:25.089Z,13.58
2023-05-05T13:14:56.352Z,13.98
2023-05-05T13:17:27.553Z,13.53
2023-05-05T13:20:01.606Z,13.25
2023-05-05T13:22:33.920Z,12.73
2023-05-05T13:25:05.157Z,13.90
2023-05-05T13:30:16.598Z,12.95
2023-05-05T13:32:51.193Z,14.23
2023-05-05T13:36:07.440Z,12.85
2023-05-05T13:38:05.125Z,13.48
2023-05-05T13:40:36.652Z,14.28
2023-05-05T13:43:07.842Z,15.00
2023-05-05T13:45:41.243Z,13.53
2023-05-05T13:48:22.467Z,14.25
2023-05-05T13:50:56.270Z,13.90
2023-05-05T13:53:37.801Z,13.43
2023-05-05T13:56:09.448Z,13.98
2023-05-05T13:58:47.524Z,14.83
2023-05-05T14:01:19.001Z,13.35
2023-05-05T14:03:54.440Z,13.13
2023-05-05T14:06:25.707Z,13.35
2023-05-05T14:09:00.339Z,14.83
2023-05-05T14:11:32.864Z,13.98
2023-05-05T14:14:06.332Z,13.80
2023-05-05T14:16:36.573Z,13.40
2023-05-05T14:19:07.873Z,13.88
2023-05-05T14:21:38.985Z,13.60
2023-05-05T14:24:10.753Z,14.93
2023-05-05T14:26:47.338Z,14.03
2023-05-05T14:29:20.354Z,15.00
2023-05-05T14:31:52.533Z,14.30
2023-05-05T14:34:23.852Z,14.65
2023-05-05T14:36:55.023Z,15.85
2023-05-05T14:39:26.300Z,15.50
2023-05-05T14:41:57.634Z,15.45
2023-05-05T14:44:34.145Z,15.93
2023-05-05T14:47:10.159Z,16.35
2023-05-05T14:49:42.728Z,17.30
2023-05-05T14:52:13.427Z,16.42
2023-05-05T14:54:47.024Z,17.30
2023-05-05T14:57:21.992Z,17.48
2023-05-05T14:59:57.977Z,16.95
2023-05-05T15:02:33.816Z,18.07
2023-05-05T15:05:05.311Z,16.20
2023-05-05T15:07:41.165Z,16.77
2023-05-05T15:10:25.992Z,18.37
2023-05-05T15:12:57.235Z,17.82
2023-05-05T15:15:41.989Z,17.10
2023-05-05T15:24:33.029Z,17.27
2023-05-05T15:24:50.966Z,16.97
2023-05-05T15:27:04.162Z,16.32
2023-05-05T15:29:50.432Z,16.93
2023-05-05T15:32:24.577Z,16.60
2023-05-05T15:35:45.865Z,16.97
2023-05-05T15:38:25.655Z,15.88
2023-05-05T15:40:56.234Z,16.15
2023-05-05T15:43:52.530Z,15.32
2023-05-05T15:46:19.096Z,16.02
2023-05-05T15:48:50.303Z,15.90
2023-05-05T15:51:31.882Z,17.32
2023-05-05T15:54:02.996Z,17.80
2023-05-05T15:56:42.874Z,17.92
2023-05-05T15:59:13.545Z,17.60
2023-05-05T16:01:47.625Z,18.87
2023-05-05T16:04:22.956Z,17.80
2023-05-05T16:07:09.022Z,18.37
2023-05-05T16:09:35.662Z,17.65
2023-05-05T16:12:09.473Z,17.77
2023-05-05T16:14:41.233Z,17.17
2023-05-05T16:17:13.687Z,16.93
2023-05-05T16:22:33.938Z,16.75
2023-05-05T16:25:09.901Z,16.77
2023-05-05T16:27:55.280Z,15.50
2023-05-05T16:30:16.511Z,15.63
2023-05-05T16:32:51.284Z,15.88
2023-05-05T16:35:30.678Z,16.20
2023-05-05T16:38:04.231Z,14.87
2023-05-05T16:40:35.330Z,14.38
2023-05-05T16:43:10.416Z,14.63
2023-05-05T16:45:42.812Z,14.35
2023-05-05T16:48:14.979Z,15.48
2023-05-05T16:50:50.584Z,14.58
2023-05-05T16:53:22.347Z,15.80
2023-05-05T16:56:02.102Z,15.80
2023-05-05T17:01:23.517Z,15.18
2023-05-05T17:04:21.250Z,14.58
2023-05-05T17:06:55.533Z,16.23
2023-05-05T17:09:30.173Z,15.03
2023-05-05T17:12:05.918Z,15.72
2023-05-05T17:20:31.254Z,15.93
2023-05-05T17:23:05.943Z,17.53
2023-05-05T17:25:40.426Z,16.42
2023-05-05T17:28:12.718Z,15.98
2023-05-05T17:30:44.055Z,16.37
2023-05-05T17:33:16.443Z,15.53
2023-05-05T17:35:53.585Z,15.38
2023-05-05T17:38:29.096Z,15.18
2023-05-05T17:41:04.718Z,15.57
2023-05-05T17:43:54.562Z,15.48
2023-05-05T17:50:55.430Z,15.63
2023-05-05T17:52:24.542Z,14.65
2023-05-05T17:55:13.651Z,14.00
2023-05-05T17:57:44.922Z,14.95
2023-05-05T18:00:16.965Z,15.00
2023-05-05T18:02:53.350Z,14.58
2023-05-05T18:05:24.509Z,13.98
2023-05-05T18:07:55.639Z,14.83
2023-05-05T18:10:31.213Z,14.58
2023-05-05T18:13:06.466Z,15.68
2023-05-05T18:15:50.121Z,14.90
2023-05-05T18:18:22.906Z,15.72
2023-05-05T18:20:57.859Z,15.35
2023-05-05T18:23:29.382Z,15.80
2023-05-05T18:26:01.749Z,15.18
2023-05-05T18:28:32.863Z,15.23
2023-05-05T18:31:10.741Z,15.80
2023-05-05T18:33:47.676Z,15.35
2023-05-05T18:36:18.847Z,15.35
2023-05-05T18:38:50.114Z,14.78
2023-05-05T18:41:22.697Z,15.20
2023-05-05T18:43:55.094Z,15.45
2023-05-05T18:46:30.588Z,16.00
2023-05-05T18:49:01.539Z,15.30
2023-05-05T18:51:39.489Z,15.50
2023-05-05T18:54:16.885Z,15.03
2023-05-05T18:56:50.989Z,15.58
2023-05-05T18:59:22.111Z,15.88
2023-05-05T19:04:44.230Z,16.48
2023-05-05T19:07:27.491Z,16.67
2023-05-05T19:09:47.818Z,16.15
2023-05-05T19:12:18.930Z,16.05
2023-05-05T19:14:50.064Z,16.30
2023-05-05T19:17:21.170Z,16.25
2023-05-05T19:19:52.364Z,15.63
2023-05-05T19:22:24.708Z,15.48
2023-05-05T19:24:55.981Z,15.28
2023-05-05T19:27:27.154Z,15.72
2023-05-05T19:29:58.351Z,15.20
2023-05-05T19:32:29.449Z,15.32
2023-05-05T19:35:00.611Z,16.82
2023-05-05T19:37:31.815Z,16.45
2023-05-05T19:40:02.952Z,15.72
2023-05-05T19:42:34.128Z,15.60
2023-05-05T19:45:05.463Z,15.85
2023-05-05T19:47:37.512Z,15.50
2023-05-05T19:50:09.955Z,15.20
2023-05-05T19:52:42.552Z,15.43
2023-05-05T19:55:14.217Z,16.02
2023-05-05T19:57:45.343Z,15.40
2023-05-05T20:00:17.150Z,15.60
2023-05-05T20:02:49.614Z,15.72
2023-05-05T20:05:21.378Z,14.87
2023-05-05T20:07:53.479Z,15.15
2023-05-05T20:10:25.197Z,15.78
2023-05-05T20:12:56.353Z,15.10
2023-05-05T20:15:27.664Z,15.13
2023-05-05T20:17:58.882Z,14.68
2023-05-05T20:20:30.138Z,15.55
2023-05-05T20:23:01.261Z,15.10
2023-05-05T20:25:32.360Z,14.93
2023-05-05T20:28:03.638Z,14.45
2023-05-05T20:30:34.716Z,14.28
2023-05-05T20:33:05.880Z,15.30
2023-05-05T20:35:37.029Z,15.43
2023-05-05T20:38:08.262Z,14.07
2023-05-05T20:40:39.829Z,14.80
2023-05-05T20:43:10.918Z,14.60
2023-05-05T20:45:42.657Z,15.63
2023-05-05T20:48:25.745Z,15.25
2023-05-05T20:50:56.953Z,15.05
2023-05-05T20:53:28.090Z,15.75
2023-05-05T20:55:59.196Z,15.58
2023-05-05T20:58:30.432Z,15.95
2023-05-05T21:01:01.636Z,15.98
2023-05-05T21:03:32.833Z,16.02
2023-05-05T21:06:05.134Z,15.48
2023-05-05T21:08:36.237Z,15.20
2023-05-05T21:11:11.564Z,15.45
2023-05-05T21:13:42.736Z,16.05
2023-05-05T21:16:14.969Z,16.35
2023-05-05T21:18:47.348Z,15.38
2023-05-05T21:21:18.480Z,16.07
2023-05-05T21:23:50.024Z,16.02
2023-05-05T21:26:21.105Z,15.63
2023-05-05T21:28:52.223Z,17.23
2023-05-05T21:31:23.832Z,16.32
2023-05-05T21:33:55.366Z,15.88
2023-05-05T21:36:26.471Z,16.45
2023-05-05T21:38:58.456Z,16.45
2023-05-05T21:41:29.965Z,15.72
2023-05-05T21:44:01.471Z,16.77
2023-05-05T21:46:32.630Z,16.67
2023-05-05T21:49:04.970Z,16.37
2023-05-05T21:51:36.074Z,15.93
2023-05-05T21:54:07.248Z,15.55
2023-05-05T21:56:39.074Z,16.85
2023-05-05T21:59:10.292Z,16.30
2023-05-05T22:01:41.517Z,16.75
2023-05-05T22:04:12.720Z,16.87
2023-05-05T22:06:44.420Z,16.57
2023-05-05T22:09:15.520Z,16.90
2023-05-05T22:11:46.655Z,15.75
2023-05-05T22:14:17.948Z,17.30
2023-05-05T22:16:49.164Z,17.42
2023-05-05T22:19:20.304Z,17.20
2023-05-05T22:21:51.394Z,16.50
2023-05-05T22:24:23.306Z,17.87
2023-05-05T22:26:55.205Z,16.73
2023-05-05T22:29:26.400Z,16.10
2023-05-05T22:31:58.856Z,16.60
2023-05-05T22:34:29.934Z,17.00
2023-05-05T22:37:01.037Z,17.70
2023-05-05T22:39:32.148Z,16.37
2023-05-05T22:42:03.245Z,16.73
2023-05-05T22:44:34.348Z,16.75
2023-05-05T22:47:05.726Z,18.17
2023-05-05T22:49:36.944Z,16.67
2023-05-05T22:52:08.802Z,17.52
2023-05-05T22:54:39.922Z,16.60
2023-05-05T22:57:11.054Z,17.50
2023-05-05T23:02:37.565Z,16.90
2023-05-05T23:05:09.599Z,17.23
2023-05-05T23:07:41.310Z,17.55
2023-05-05T23:10:12.916Z,16.82
2023-05-05T23:12:44.054Z,16.73
2023-05-05T23:15:15.329Z,17.30
2023-05-05T23:17:46.509Z,16.77
2023-05-05T23:20:17.761Z,16.42
2023-05-05T23:22:51.098Z,16.80
2023-05-05T23:25:22.238Z,17.12
2023-05-05T23:27:53.356Z,16.12
2023-05-05T23:30:24.633Z,16.12
2023-05-05T23:32:56.013Z,16.45
2023-05-05T23:35:27.451Z,16.20
2023-05-05T23:37:58.577Z,16.87
2023-05-05T23:40:32.514Z,16.45
2023-05-05T23:43:03.325Z,16.75
2023-05-05T23:45:34.443Z,17.02
2023-05-05T23:48:05.758Z,16.80
2023-05-05T23:50:36.875Z,16.65
2023-05-05T23:53:07.933Z,16.80
2023-05-05T23:55:39.133Z,18.42
